Terminal Aerodrome Forecast
Issued by NWS

Home | Current Version | Previous Version | Text Only | Print | Product List | Glossary On
Versions: 1 2 3 4 5 6 7 8 9 10 11 12 13 14 15 16 17 18 19 20 21 22 23 24 25 26 27 28 29 30 31 32 33 34 35 36
000
FTUS43 KLOT 211700
TAFORD
TAF
KORD 211739Z 2118/2224 22007KT P6SM -SHRA SCT050 BKN070 OVC150
     FM211930 23010KT P6SM VCSH SCT060 BKN120
     FM212300 20005KT P6SM SCT040 BKN100
      TEMPO 2123/2202 -SHRA SCT040 BKN080
     FM220600 19005KT P6SM VCSH SCT050 BKN100 PROB30 2207/2211 4SM
      -TSRA BR BKN050CB
     FM221200 22004KT 4SM BR BKN040
     FM221600 25007KT P6SM SCT040 BKN100=

USA.gov is the U.S. government's official web portal to all federal, state and local government web resources and services.